»·PEaware :: N218GT KSNA-KPSP

N218GT :: KSNA-KPSP

FLIGHT INFORMATION

Flight Status: Arrived
Operator: Privately registered:
United States
More flights under this callsign
Pilot: Joe C. (19058)
Aircraft: EMBRAER BANDEIRANTE
(E110)
More flights by this aircraft type
Origin: KSNA John Wayne-Orange Co
United States
Destination: KPSP Palm Springs Intl
United States
More flights between these airports :: More routes between these airports
Route: +MUSEL8 TRM
File this flight plan on PilotEdge
Remarks:
Altitude:
(Current/Filed)
7,000ft
Speed:
(Current/Filed)
180kts
Departed: 10-Sep-18 04:38 PM
Arrived: 10-Sep-18 05:18 PM
Distance/Time
Traveled:
68nm/0:40
Distance/Time
To Go:
Arrived

Flight Plot

Page will automatically refresh every two minutes.


Map Options




Map Legend


Flown Route
Filed Route
Departure Airport
Arrival Airport
Navaid (VOR, NDB)
Fix

Horizontal Profiles

Position Reports

Time Latitude Longitude Heading Altitude Ground
Speed
10-Sep-18 16:17 33.671868 -117.867117 206 61ft 0kts
10-Sep-18 16:18 33.671868 -117.867117 206 61ft 0kts
10-Sep-18 16:19 33.671868 -117.867117 206 61ft 0kts
10-Sep-18 16:20 33.671868 -117.867117 206 61ft 0kts
10-Sep-18 16:21 33.671868 -117.867117 206 61ft 0kts
10-Sep-18 16:22 33.671868 -117.867117 206 61ft 0kts
10-Sep-18 16:23 33.671868 -117.867117 206 61ft 0kts
10-Sep-18 16:24 33.671868 -117.867117 206 61ft 0kts
10-Sep-18 16:25 33.671868 -117.867117 206 61ft 0kts
10-Sep-18 16:26 33.671868 -117.867117 206 61ft 0kts
10-Sep-18 16:27 33.671868 -117.867117 206 61ft 0kts
10-Sep-18 16:28 33.671868 -117.867117 206 61ft 0kts
10-Sep-18 16:29 33.671867 -117.867117 206 61ft 0kts
10-Sep-18 16:30 33.671867 -117.867117 206 61ft 0kts
10-Sep-18 16:31 33.671867 -117.867117 206 61ft 0kts
10-Sep-18 16:32 33.671867 -117.867117 206 61ft 0kts
10-Sep-18 16:33 33.671867 -117.867117 206 61ft 0kts
10-Sep-18 16:34 33.671867 -117.867117 206 61ft 0kts
10-Sep-18 16:35 33.671781 -117.867382 281 61ft 8kts
10-Sep-18 16:36 33.678362 -117.863767 27 61ft 37kts
10-Sep-18 16:37 33.680645 -117.863062 297 61ft 0kts
10-Sep-18 16:38 33.680645 -117.863062 297 61ft 0kts
10-Sep-18 16:39 33.680645 -117.863062 297 61ft 0kts
10-Sep-18 16:40 33.675609 -117.868921 207 64ft 107kts
10-Sep-18 16:41 33.639731 -117.882324 189 981ft 151kts
10-Sep-18 16:42 33.600604 -117.889501 190 2501ft 135kts
10-Sep-18 16:43 33.565526 -117.895994 191 4016ft 121kts
10-Sep-18 16:44 33.535458 -117.901688 193 5144ft 111kts
10-Sep-18 16:45 33.506519 -117.907205 194 6077ft 106kts
10-Sep-18 16:46 33.475612 -117.913085 193 6902ft 120kts
10-Sep-18 16:47 33.443520 -117.910070 122 7923ft 133kts
10-Sep-18 16:48 33.458237 -117.873776 41 8884ft 131kts
10-Sep-18 16:49 33.483297 -117.842137 41 9827ft 131kts
10-Sep-18 16:50 33.499693 -117.802248 69 10510ft 140kts
10-Sep-18 16:51 33.509665 -117.756813 72 11155ft 142kts
10-Sep-18 16:52 33.520701 -117.702648 73 11032ft 180kts
10-Sep-18 16:53 33.532826 -117.642474 73 11031ft 189kts
10-Sep-18 16:54 33.545282 -117.580473 73 11029ft 193kts
10-Sep-18 16:55 33.557855 -117.517706 73 11023ft 194kts
10-Sep-18 16:56 33.570366 -117.455070 73 11019ft 193kts
10-Sep-18 16:57 33.582671 -117.393293 73 11016ft 193kts
10-Sep-18 16:58 33.594963 -117.331416 73 11010ft 192kts
10-Sep-18 16:59 33.607312 -117.269052 73 11011ft 192kts
10-Sep-18 17:00 33.619471 -117.207442 73 11009ft 188kts
10-Sep-18 17:01 33.631368 -117.147033 73 11010ft 185kts
10-Sep-18 17:02 33.641239 -117.096801 73 11006ft 185kts
10-Sep-18 17:03 33.654977 -117.026743 74 10973ft 185kts
10-Sep-18 17:04 33.664018 -116.980509 74 10952ft 184kts
10-Sep-18 17:05 33.675643 -116.920879 74 10924ft 182kts
10-Sep-18 17:06 33.687124 -116.861836 74 10899ft 181kts
10-Sep-18 17:07 33.684199 -116.804985 94 11022ft 177kts
10-Sep-18 17:08 33.679200 -116.745868 94 11022ft 178kts
10-Sep-18 17:09 33.674155 -116.686484 94 11021ft 179kts
10-Sep-18 17:10 33.668936 -116.625387 94 10563ft 200kts
10-Sep-18 17:11 33.663030 -116.556951 94 9376ft 194kts
10-Sep-18 17:12 33.658292 -116.496472 93 7980ft 176kts
10-Sep-18 17:13 33.665180 -116.437208 79 6091ft 191kts
10-Sep-18 17:14 33.677310 -116.375735 45 4086ft 192kts
10-Sep-18 17:15 33.712116 -116.394579 312 3269ft 133kts
10-Sep-18 17:16 33.737525 -116.422635 321 2580ft 112kts
10-Sep-18 17:17 33.761092 -116.444505 321 2026ft 116kts
10-Sep-18 17:18 33.785943 -116.467466 321 1341ft 99kts
10-Sep-18 17:19 33.810979 -116.490685 320 748ft 130kts
10-Sep-18 17:20 33.828818 -116.507244 270 423ft 8kts
10-Sep-18 17:21 33.826795 -116.508055 217 421ft 3kts

Navigation Log

Ident Type
1. KSNA Airport
2. MUSEL Fix
3. MUSEL Fix
4. TEYKI Fix
5. HAPPE Fix
6. BALDI Fix
7. CORLA Fix
8. TRM Navaid
9. KPSP Airport